This is the latest recevied weather packets stored in our database for station/object WD9EKA. If no packets are shown the sender has not sent any weather packets the latest 10 day(s).
| Time | Temp. | Humidity | Pressure | Rain* | Wind** | Luminosity | Snow |
|---|---|---|---|---|---|---|---|
| 1787593363 | 25.56° C | 60% | 1014.1 hPa | 0 mm | - | - | - |
| 1787593043 | 23.89° C | 62% | 1014.1 hPa | 0 mm | - | - | - |
| 1787592723 | 25° C | 60% | 1014.2 hPa | 0 mm | - | - | - |
| 1787592403 | 25° C | 56% | 1014.2 hPa | 0 mm | - | - | - |
| 1787592083 | 24.44° C | 60% | 1014.1 hPa | 0 mm | - | - | - |
| 1787591763 | 24.44° C | 57% | 1014.3 hPa | 0 mm | - | - | - |
| 1787591443 | 25° C | 58% | 1014.2 hPa | 0 mm | - | - | - |
| 1787591123 | 23.89° C | 57% | 1014.3 hPa | 0 mm | - | - | - |
| 1787590804 | 23.33° C | 59% | 1014.1 hPa | 0 mm | - | - | - |
| 1787590473 | 23.89° C | 58% | 1014 hPa | 0 mm | - | - | - |
| 1787590114 | 25° C | 57% | 1014.2 hPa | 0 mm | - | - | - |
| 1787589754 | 25° C | 60% | 1013.9 hPa | 0 mm | - | - | - |
| 1787589393 | 25° C | 60% | 1013.9 hPa | 0 mm | - | - | - |
| 1787589033 | 25° C | 61% | 1013.9 hPa | 0 mm | - | - | - |
| 1787588673 | 24.44° C | 60% | 1013.9 hPa | 0 mm | - | - | - |
| 1787588314 | 23.89° C | 61% | 1013.9 hPa | 0 mm | - | - | - |
| 1787587953 | 23.89° C | 64% | 1013.7 hPa | 0 mm | - | - | - |
| 1787587594 | 24.44° C | 63% | 1013.7 hPa | 0 mm | - | - | - |
| 1787587233 | 25° C | 60% | 1013.8 hPa | 0 mm | - | - | - |
| 1787586874 | 24.44° C | 61% | 1013.7 hPa | 0 mm | - | - | - |
| 1787586514 | 23.33° C | 61% | 1013.9 hPa | 0 mm | - | - | - |
| 1787586154 | 22.78° C | 62% | 1013.4 hPa | 0 mm | - | - | - |
| 1787585794 | 22.78° C | 65% | 1013.4 hPa | 0 mm | - | - | - |
| 1787585433 | 22.78° C | 68% | 1013.4 hPa | 0 mm | - | - | - |
| 1787585073 | 23.33° C | 69% | 1013.4 hPa | 0 mm | - | - | - |
* Rain latest hour (hover to see other rain measurements)
** Current wind speed in m/s (hover to see current wind gust speed)